createdAt,value
2022-08-03T00:00:27.606Z,100413.19
2022-08-03T00:02:54.281Z,100407.50
2022-08-03T00:05:20.933Z,100405.09
2022-08-03T00:07:48.426Z,100410.47
2022-08-03T00:10:16.503Z,100405.75
2022-08-03T00:12:43.011Z,100411.75
2022-08-03T00:15:11.298Z,100404.97
2022-08-03T00:17:52.720Z,100410.59
2022-08-03T00:20:21.999Z,100403.41
2022-08-03T00:22:49.187Z,100408.47
2022-08-03T00:25:16.688Z,100406.19
2022-08-03T00:27:43.227Z,100408.31
2022-08-03T00:30:10.591Z,100401.88
2022-08-03T00:32:37.041Z,100401.31
2022-08-03T00:35:09.822Z,100400.31
2022-08-03T00:37:40.589Z,100399.13
2022-08-03T00:40:12.966Z,100394.19
2022-08-03T00:42:58.444Z,100393.09
2022-08-03T00:45:30.073Z,100393.41
2022-08-03T00:47:57.027Z,100389.06
2022-08-03T00:50:25.796Z,100393.41
2022-08-03T00:52:54.326Z,100390.34
2022-08-03T00:55:28.450Z,100394.94
2022-08-03T00:58:15.175Z,100396.56
2022-08-03T01:01:01.650Z,100395.22
2022-08-03T01:03:48.322Z,100390.16
2022-08-03T01:06:44.807Z,100396.69
2022-08-03T01:09:49.335Z,100394.19
2022-08-03T01:12:45.336Z,100385.66
2022-08-03T01:15:25.028Z,100388.66
2022-08-03T01:17:57.417Z,100389.16
2022-08-03T01:20:31.847Z,100390.84
2022-08-03T01:23:28.752Z,100389.84
2022-08-03T01:26:03.269Z,100380.25
2022-08-03T01:28:48.680Z,100383.63
2022-08-03T01:31:21.972Z,100380.97
2022-08-03T01:33:55.788Z,100377.00
2022-08-03T01:36:26.170Z,100381.94
2022-08-03T01:38:55.222Z,100381.22
2022-08-03T01:41:33.380Z,100376.63
2022-08-03T01:44:29.239Z,100377.72
2022-08-03T01:46:51.305Z,100367.72
2022-08-03T01:49:18.458Z,100371.91
2022-08-03T01:51:56.623Z,100370.38
2022-08-03T01:54:43.123Z,100368.66
2022-08-03T01:57:10.178Z,100366.38
2022-08-03T01:59:38.663Z,100373.38
2022-08-03T02:02:28.233Z,100369.16
2022-08-03T02:04:55.681Z,100370.94
2022-08-03T02:07:23.549Z,100360.09
2022-08-03T02:09:52.672Z,100366.38
2022-08-03T02:12:22.225Z,100367.13
2022-08-03T02:14:49.069Z,100362.88
2022-08-03T02:17:16.466Z,100365.78
2022-08-03T02:19:44.636Z,100362.66
2022-08-03T02:22:12.971Z,100367.34
2022-08-03T02:24:40.246Z,100370.38
2022-08-03T02:27:14.192Z,100370.09
2022-08-03T02:29:42.609Z,100360.47
2022-08-03T02:32:14.120Z,100365.19
2022-08-03T02:34:45.899Z,100358.94
2022-08-03T02:37:13.480Z,100360.59
2022-08-03T02:39:42.313Z,100366.97
2022-08-03T02:42:12.646Z,100364.56
2022-08-03T02:44:40.300Z,100363.25
2022-08-03T02:47:11.162Z,100356.00
2022-08-03T02:49:50.627Z,100358.91
2022-08-03T02:52:23.261Z,100357.56
2022-08-03T02:54:53.526Z,100366.72
2022-08-03T02:57:22.770Z,100363.22
2022-08-03T02:59:51.019Z,100354.31
2022-08-03T03:02:19.636Z,100357.09
2022-08-03T03:05:50.732Z,100356.13
2022-08-03T03:07:37.258Z,100358.88
2022-08-03T03:10:22.001Z,100350.34
2022-08-03T03:12:51.295Z,100355.41
2022-08-03T03:15:18.855Z,100353.72
2022-08-03T03:17:46.087Z,100359.84
2022-08-03T03:20:14.769Z,100359.34
2022-08-03T03:22:43.449Z,100359.56
2022-08-03T03:25:11.883Z,100356.94
2022-08-03T03:27:39.800Z,100358.50
2022-08-03T03:30:07.053Z,100355.97
2022-08-03T03:32:33.836Z,100356.09
2022-08-03T03:35:01.110Z,100362.84
2022-08-03T03:37:27.627Z,100357.03
2022-08-03T03:39:54.839Z,100356.78
2022-08-03T03:42:21.483Z,100356.53
2022-08-03T03:44:48.200Z,100359.88
2022-08-03T03:47:14.844Z,100358.53
2022-08-03T03:49:43.911Z,100359.25
2022-08-03T03:52:10.741Z,100355.16
2022-08-03T03:54:42.183Z,100353.13
2022-08-03T03:57:10.393Z,100356.34
2022-08-03T03:59:41.884Z,100360.78
2022-08-03T04:02:10.204Z,100355.44
2022-08-03T04:04:57.097Z,100357.47
2022-08-03T04:07:44.302Z,100354.81
2022-08-03T04:10:34.560Z,100360.22
2022-08-03T04:13:03.981Z,100356.16
2022-08-03T04:15:33.350Z,100362.78
2022-08-03T04:18:02.742Z,100367.75
2022-08-03T04:20:32.538Z,100368.09
2022-08-03T04:23:01.496Z,100361.91
2022-08-03T04:25:32.324Z,100367.03
2022-08-03T04:28:29.745Z,100367.63
2022-08-03T04:30:50.867Z,100366.38
2022-08-03T04:33:19.393Z,100373.16
2022-08-03T04:36:01.010Z,100376.66
2022-08-03T04:38:31.585Z,100376.53
2022-08-03T04:41:00.016Z,100373.78
2022-08-03T04:43:27.773Z,100375.91
2022-08-03T04:45:55.720Z,100380.75
2022-08-03T04:48:22.765Z,100382.31
2022-08-03T04:50:49.336Z,100381.03
2022-08-03T04:53:16.518Z,100377.41
2022-08-03T04:55:43.191Z,100384.75
2022-08-03T04:58:09.735Z,100388.00
2022-08-03T05:00:36.235Z,100384.63
2022-08-03T05:03:02.766Z,100374.91
2022-08-03T05:05:49.472Z,100373.19
2022-08-03T05:08:16.096Z,100381.03
2022-08-03T05:10:47.693Z,100373.09
2022-08-03T05:13:14.504Z,100374.94
2022-08-03T05:15:43.074Z,100374.94
2022-08-03T05:18:13.887Z,100371.31
2022-08-03T05:20:41.245Z,100373.84
2022-08-03T05:23:07.877Z,100382.16
2022-08-03T05:25:34.591Z,100378.19
2022-08-03T05:28:01.583Z,100383.09
2022-08-03T05:30:34.194Z,100381.09
2022-08-03T05:33:02.915Z,100381.56
2022-08-03T05:36:02.098Z,100372.06
2022-08-03T05:38:23.966Z,100376.75
2022-08-03T05:40:57.569Z,100380.34
2022-08-03T05:43:43.312Z,100382.75
2022-08-03T05:46:11.956Z,100389.97
2022-08-03T05:48:39.446Z,100384.13
2022-08-03T05:51:07.623Z,100386.53
2022-08-03T05:53:34.552Z,100382.50
2022-08-03T05:56:13.219Z,100386.22
2022-08-03T05:58:48.367Z,100394.66
2022-08-03T06:01:16.312Z,100388.25
2022-08-03T06:03:43.180Z,100386.28
2022-08-03T06:06:09.787Z,100392.97
2022-08-03T06:08:36.893Z,100390.44
2022-08-03T06:11:04.793Z,100390.66
2022-08-03T06:13:32.151Z,100388.34
2022-08-03T06:15:58.827Z,100387.53
2022-08-03T06:18:25.436Z,100392.19
2022-08-03T06:20:52.649Z,100387.22
2022-08-03T06:23:19.532Z,100380.00
2022-08-03T06:25:46.970Z,100387.59
2022-08-03T06:28:51.716Z,100379.84
2022-08-03T06:31:06.464Z,100383.09
2022-08-03T06:34:30.417Z,100376.97
2022-08-03T06:36:19.981Z,100383.88
2022-08-03T06:38:46.649Z,100377.81
2022-08-03T06:41:13.156Z,100375.75
2022-08-03T06:44:03.216Z,100383.88
2022-08-03T06:46:26.146Z,100387.09
2022-08-03T06:48:52.714Z,100391.50
2022-08-03T06:51:19.348Z,100399.16
2022-08-03T06:53:45.975Z,100396.63
2022-08-03T06:56:12.795Z,100397.19
2022-08-03T06:58:39.308Z,100401.84
2022-08-03T07:01:05.910Z,100394.66
2022-08-03T07:03:32.485Z,100400.28
2022-08-03T07:05:59.574Z,100403.50
2022-08-03T07:08:34.157Z,100397.06
2022-08-03T07:11:01.412Z,100401.81
2022-08-03T07:13:28.027Z,100395.75
2022-08-03T07:15:55.983Z,100397.06
2022-08-03T07:18:29.246Z,100405.38
2022-08-03T07:20:57.472Z,100397.03
2022-08-03T07:23:24.018Z,100402.06
2022-08-03T07:25:51.074Z,100393.00
2022-08-03T07:28:18.016Z,100392.38
2022-08-03T07:30:44.565Z,100394.44
2022-08-03T07:33:11.238Z,100396.31
2022-08-03T07:35:37.719Z,100399.06
2022-08-03T07:38:04.188Z,100398.09
2022-08-03T07:40:31.654Z,100400.31
2022-08-03T07:42:58.765Z,100397.88
2022-08-03T07:45:26.412Z,100392.84
2022-08-03T07:47:54.108Z,100394.75
2022-08-03T07:50:21.701Z,100391.50
2022-08-03T07:52:49.229Z,100396.03
2022-08-03T07:55:21.524Z,100397.13
2022-08-03T07:57:59.142Z,100400.53
2022-08-03T08:00:25.638Z,100397.63
2022-08-03T08:02:52.154Z,100401.38
2022-08-03T08:05:18.759Z,100390.69
2022-08-03T08:07:50.710Z,100387.53
2022-08-03T08:10:19.053Z,100392.72
2022-08-03T08:12:46.218Z,100382.53
2022-08-03T08:15:13.042Z,100386.97
2022-08-03T08:17:52.007Z,100383.84
2022-08-03T08:20:27.076Z,100381.16
2022-08-03T08:22:57.895Z,100383.84
2022-08-03T08:25:25.343Z,100381.50
2022-08-03T08:28:31.805Z,100384.69
2022-08-03T08:30:39.373Z,100385.22
2022-08-03T08:33:05.879Z,100378.97
2022-08-03T08:35:32.479Z,100367.44
2022-08-03T08:38:05.553Z,100376.63
2022-08-03T08:40:32.987Z,100378.25
2022-08-03T08:42:59.533Z,100372.22
2022-08-03T08:45:26.624Z,100367.81
2022-08-03T08:47:59.915Z,100373.19
2022-08-03T08:50:28.381Z,100369.53
2022-08-03T08:52:56.588Z,100364.16
2022-08-03T08:55:23.826Z,100364.78
2022-08-03T08:58:05.111Z,100363.81
2022-08-03T09:00:32.598Z,100361.19
2022-08-03T09:03:00.886Z,100359.13
2022-08-03T09:05:53.880Z,100358.84
2022-08-03T09:08:14.743Z,100361.81
2022-08-03T09:10:41.172Z,100358.09
2022-08-03T09:13:07.950Z,100358.53
2022-08-03T09:15:34.515Z,100357.50
2022-08-03T09:18:04.047Z,100355.25
2022-08-03T09:20:33.452Z,100351.50
2022-08-03T09:23:59.616Z,100356.88
2022-08-03T09:25:59.824Z,100352.59
2022-08-03T09:29:01.296Z,100356.69
2022-08-03T09:31:30.063Z,100350.31
2022-08-03T09:34:00.870Z,100354.84
2022-08-03T09:36:50.256Z,100362.91
2022-08-03T09:39:19.019Z,100356.28
2022-08-03T09:42:05.235Z,100346.88
2022-08-03T09:44:42.081Z,100342.88
2022-08-03T09:47:10.299Z,100349.00
2022-08-03T09:49:38.261Z,100337.41
2022-08-03T09:52:32.116Z,100340.59
2022-08-03T09:55:02.818Z,100339.38
2022-08-03T09:57:32.273Z,100344.06
2022-08-03T10:00:14.048Z,100341.34
2022-08-03T10:02:42.021Z,100335.63
2022-08-03T10:05:10.028Z,100334.09
2022-08-03T10:07:45.958Z,100338.66
2022-08-03T10:10:30.651Z,100335.81
2022-08-03T10:12:59.949Z,100337.44
2022-08-03T10:16:22.239Z,100333.28
2022-08-03T10:18:13.754Z,100338.28
2022-08-03T10:20:52.730Z,100340.16
2022-08-03T10:23:21.839Z,100326.63
2022-08-03T10:25:55.853Z,100327.56
2022-08-03T10:28:23.187Z,100325.28
2022-08-03T10:30:52.678Z,100328.50
2022-08-03T10:33:49.263Z,100316.31
2022-08-03T10:36:12.432Z,100308.84
2022-08-03T10:38:52.317Z,100306.84
2022-08-03T10:41:23.703Z,100310.38
2022-08-03T10:43:56.593Z,100303.63
2022-08-03T10:46:23.244Z,100293.84
2022-08-03T10:48:52.190Z,100300.06
2022-08-03T10:51:19.977Z,100298.91
2022-08-03T10:53:54.987Z,100290.84
2022-08-03T10:56:53.491Z,100288.66
2022-08-03T10:59:46.244Z,100288.25
2022-08-03T11:02:14.211Z,100281.00
2022-08-03T11:04:41.635Z,100286.72
2022-08-03T11:07:25.287Z,100284.63
2022-08-03T11:09:56.092Z,100293.06
2022-08-03T11:12:30.204Z,100293.88
2022-08-03T11:15:04.959Z,100285.84
2022-08-03T11:17:33.889Z,100287.88
2022-08-03T11:20:13.622Z,100268.72
2022-08-03T11:22:54.390Z,100265.31
2022-08-03T11:25:53.417Z,100276.78
2022-08-03T11:28:28.483Z,100263.88
2022-08-03T11:30:55.077Z,100258.94
2022-08-03T11:33:31.327Z,100275.94
2022-08-03T11:35:59.912Z,100266.50
2022-08-03T11:38:26.445Z,100259.50
2022-08-03T11:40:54.400Z,100261.22
2022-08-03T11:43:31.237Z,100254.75
2022-08-03T11:45:59.235Z,100251.59
2022-08-03T11:48:28.351Z,100250.41
2022-08-03T11:50:55.001Z,100252.13
2022-08-03T11:53:21.613Z,100256.44
2022-08-03T11:55:53.000Z,100251.00
2022-08-03T11:59:15.301Z,100245.34
2022-08-03T12:01:12.194Z,100245.75
2022-08-03T12:03:38.990Z,100240.91
2022-08-03T12:06:09.991Z,100230.50
2022-08-03T12:08:36.491Z,100237.16
2022-08-03T12:11:06.615Z,100225.38
2022-08-03T12:14:26.825Z,100230.06
2022-08-03T12:16:30.705Z,100232.09
2022-08-03T12:19:06.434Z,100244.75
2022-08-03T12:21:33.043Z,100229.69
2022-08-03T12:24:04.980Z,100217.91
2022-08-03T12:26:45.023Z,100218.47
2022-08-03T12:29:25.765Z,100221.72
2022-08-03T12:31:52.290Z,100215.16
2022-08-03T12:34:18.848Z,100213.13
2022-08-03T12:36:53.339Z,100219.22
2022-08-03T12:39:23.958Z,100215.00
2022-08-03T12:41:54.462Z,100215.78
2022-08-03T12:44:31.168Z,100217.94
2022-08-03T12:46:58.920Z,100218.13
2022-08-03T12:49:26.135Z,100215.19
2022-08-03T12:51:52.539Z,100218.31
2022-08-03T12:54:24.761Z,100219.31
2022-08-03T12:57:15.827Z,100216.72
2022-08-03T12:59:52.713Z,100213.13
2022-08-03T13:02:23.749Z,100211.53
2022-08-03T13:04:52.117Z,100197.63
2022-08-03T13:07:20.097Z,100202.97
2022-08-03T13:09:57.281Z,100195.34
2022-08-03T13:12:27.104Z,100212.19
2022-08-03T13:14:59.068Z,100197.09
2022-08-03T13:17:26.786Z,100204.47
2022-08-03T13:19:53.648Z,100204.94
2022-08-03T13:22:28.787Z,100198.03
2022-08-03T13:24:57.378Z,100198.63
2022-08-03T13:28:03.565Z,100191.97
2022-08-03T13:30:11.529Z,100192.19
2022-08-03T13:32:38.411Z,100189.22
2022-08-03T13:35:05.837Z,100192.38
2022-08-03T13:37:32.603Z,100189.50
2022-08-03T13:40:02.272Z,100193.66
2022-08-03T13:42:30.953Z,100178.59
2022-08-03T13:44:57.703Z,100185.66
2022-08-03T13:47:24.280Z,100182.75
2022-08-03T13:49:54.289Z,100183.84
2022-08-03T13:52:30.304Z,100179.44
2022-08-03T13:54:56.867Z,100173.69
2022-08-03T13:58:04.378Z,100171.44
2022-08-03T14:00:10.649Z,100167.06
2022-08-03T14:02:38.392Z,100165.13
2022-08-03T14:05:05.477Z,100146.78
2022-08-03T14:07:32.017Z,100156.38
2022-08-03T14:09:58.467Z,100151.34
2022-08-03T14:12:25.031Z,100158.19
2022-08-03T14:14:51.499Z,100154.47
2022-08-03T14:17:18.262Z,100156.13
2022-08-03T14:19:53.503Z,100145.66
2022-08-03T14:22:21.123Z,100151.84
2022-08-03T14:24:47.772Z,100155.03
2022-08-03T14:27:16.369Z,100150.34
2022-08-03T14:29:43.155Z,100146.25
2022-08-03T14:32:13.067Z,100138.50
2022-08-03T14:34:40.894Z,100140.88
2022-08-03T14:37:07.663Z,100142.09
2022-08-03T14:42:21.623Z,100138.50
2022-08-03T14:44:48.190Z,100132.69
2022-08-03T14:47:15.042Z,100138.03
2022-08-03T14:50:37.431Z,100129.47
2022-08-03T14:52:28.866Z,100148.84
2022-08-03T14:54:55.340Z,100137.91
2022-08-03T14:57:22.360Z,100131.75
2022-08-03T14:59:56.299Z,100136.78
2022-08-03T15:02:25.462Z,100129.03
2022-08-03T15:04:52.777Z,100128.72
2022-08-03T15:07:20.745Z,100132.91
2022-08-03T15:09:47.546Z,100125.81
2022-08-03T15:12:14.047Z,100110.41
2022-08-03T15:14:40.637Z,100104.84
2022-08-03T15:17:07.582Z,100109.19
2022-08-03T15:20:02.416Z,100101.41
2022-08-03T15:22:25.461Z,100100.34
2022-08-03T15:26:01.620Z,100089.19
2022-08-03T15:28:04.035Z,100093.06
2022-08-03T15:30:35.819Z,100090.81
2022-08-03T15:33:03.132Z,100085.53
2022-08-03T15:35:29.594Z,100093.25
2022-08-03T15:37:56.153Z,100081.41
2022-08-03T15:40:22.572Z,100080.31
2022-08-03T15:42:49.069Z,100082.81
2022-08-03T15:45:17.798Z,100077.00
2022-08-03T15:47:47.107Z,100076.81
2022-08-03T15:50:13.668Z,100084.25
2022-08-03T15:52:40.137Z,100075.94
2022-08-03T15:55:07.224Z,100071.00
2022-08-03T15:57:33.755Z,100069.34
2022-08-03T16:00:20.498Z,100070.81
2022-08-03T16:03:00.017Z,100059.06
2022-08-03T16:05:26.535Z,100061.66
2022-08-03T16:08:03.251Z,100065.78
2022-08-03T16:10:31.083Z,100059.72
2022-08-03T16:12:58.855Z,100057.84
2022-08-03T16:15:25.670Z,100052.84
2022-08-03T16:17:52.279Z,100054.69
2022-08-03T16:20:34.181Z,100055.41
2022-08-03T16:23:05.580Z,100052.84
2022-08-03T16:25:42.362Z,100051.00
2022-08-03T16:28:13.916Z,100053.63
2022-08-03T16:30:43.873Z,100053.94
2022-08-03T16:33:17.232Z,100051.06
2022-08-03T16:35:45.465Z,100056.03
2022-08-03T16:38:16.553Z,100049.88
2022-08-03T16:40:45.683Z,100057.25
2022-08-03T16:43:18.957Z,100050.00
2022-08-03T16:45:49.283Z,100049.72
2022-08-03T16:48:17.049Z,100046.91
2022-08-03T16:50:44.319Z,100048.81
2022-08-03T16:53:16.343Z,100042.25
2022-08-03T16:55:53.612Z,100048.69
2022-08-03T16:58:41.875Z,100045.09
2022-08-03T17:01:22.507Z,100044.44
2022-08-03T17:04:04.614Z,100040.41
2022-08-03T17:06:35.657Z,100044.97
2022-08-03T17:09:10.648Z,100046.41
2022-08-03T17:11:39.011Z,100044.38
2022-08-03T17:14:11.542Z,100044.81
2022-08-03T17:16:38.953Z,100040.47
2022-08-03T17:19:12.732Z,100045.28
2022-08-03T17:21:45.282Z,100039.03
2022-08-03T17:24:31.123Z,100038.41
2022-08-03T17:27:01.953Z,100042.78
2022-08-03T17:29:29.856Z,100041.38
2022-08-03T17:31:56.907Z,100045.03
2022-08-03T17:34:26.714Z,100045.03
2022-08-03T17:37:17.794Z,100037.38
2022-08-03T17:39:58.089Z,100041.16
2022-08-03T17:42:38.848Z,100033.81
2022-08-03T17:45:07.367Z,100038.28
2022-08-03T17:47:43.229Z,100041.94
2022-08-03T17:50:24.235Z,100040.28
2022-08-03T17:53:07.114Z,100046.59
2022-08-03T17:55:56.043Z,100044.78
2022-08-03T17:59:08.732Z,100044.88
2022-08-03T18:02:12.212Z,100045.88
2022-08-03T18:05:00.698Z,100043.66
2022-08-03T18:07:41.107Z,100048.22
2022-08-03T18:10:11.608Z,100043.00
2022-08-03T18:12:54.958Z,100051.25
2022-08-03T18:15:30.075Z,100054.22
2022-08-03T18:18:10.404Z,100053.88
2022-08-03T18:20:42.089Z,100047.75
2022-08-03T18:23:25.185Z,100046.22
2022-08-03T18:25:59.195Z,100055.38
2022-08-03T18:28:27.534Z,100057.06
2022-08-03T18:30:55.671Z,100054.09
2022-08-03T18:34:18.573Z,100054.13
2022-08-03T18:36:18.542Z,100050.69
2022-08-03T18:38:51.577Z,100050.22
2022-08-03T18:41:31.859Z,100049.28
2022-08-03T18:47:07.172Z,100059.53
2022-08-03T18:49:51.514Z,100062.94
2022-08-03T18:52:35.358Z,100067.00
2022-08-03T18:55:21.072Z,100056.84
2022-08-03T19:01:15.198Z,100057.47
2022-08-03T19:04:00.431Z,100066.38
2022-08-03T19:06:31.693Z,100064.22
2022-08-03T19:09:12.977Z,100072.38
2022-08-03T19:14:56.334Z,100075.50
2022-08-03T19:17:29.526Z,100078.69
2022-08-03T19:19:57.887Z,100069.81
2022-08-03T19:22:27.374Z,100069.38
2022-08-03T19:24:55.224Z,100074.44
2022-08-03T19:27:27.022Z,100083.13
2022-08-03T19:29:59.048Z,100084.00
2022-08-03T19:32:29.648Z,100078.41
2022-08-03T19:34:57.801Z,100081.28
2022-08-03T19:37:27.469Z,100082.13
2022-08-03T19:40:05.897Z,100088.94
2022-08-03T19:42:45.084Z,100091.63
2022-08-03T19:45:17.083Z,100090.13
2022-08-03T19:47:58.251Z,100091.91
2022-08-03T19:50:25.257Z,100085.22
2022-08-03T19:52:53.025Z,100093.53
2022-08-03T19:55:20.165Z,100088.28
2022-08-03T19:57:49.355Z,100092.41
2022-08-03T20:00:19.272Z,100091.13
2022-08-03T20:02:46.201Z,100092.56
2022-08-03T20:05:15.304Z,100091.13
2022-08-03T20:07:47.973Z,100087.38
2022-08-03T20:10:16.520Z,100100.50
2022-08-03T20:12:44.680Z,100100.16
2022-08-03T20:15:11.511Z,100097.81
2022-08-03T20:17:56.355Z,100091.06
2022-08-03T20:20:37.137Z,100097.94
2022-08-03T20:23:12.011Z,100091.25
2022-08-03T20:25:57.109Z,100095.59
2022-08-03T20:28:35.072Z,100096.19
2022-08-03T20:31:18.280Z,100094.50
2022-08-03T20:33:46.065Z,100100.63
2022-08-03T20:36:18.129Z,100101.91
2022-08-03T20:38:47.495Z,100090.88
2022-08-03T20:41:15.959Z,100088.44
2022-08-03T20:43:42.878Z,100089.53
2022-08-03T20:46:29.446Z,100090.34
2022-08-03T20:48:58.779Z,100089.44
2022-08-03T20:51:50.426Z,100090.28
2022-08-03T20:54:28.664Z,100093.41
2022-08-03T20:56:58.155Z,100084.66
2022-08-03T21:02:19.859Z,100088.84
2022-08-03T21:04:55.942Z,100083.97
2022-08-03T21:07:23.935Z,100079.59
2022-08-03T21:09:53.343Z,100082.53
2022-08-03T21:12:49.107Z,100074.28
2022-08-03T21:12:59.027Z,100050.19
2022-08-03T21:13:00.963Z,100056.81
2022-08-03T21:13:01.612Z,100067.91
2022-08-03T21:13:07.828Z,100088.91
2022-08-03T21:16:11.841Z,100073.03
2022-08-03T21:18:10.969Z,100078.88
2022-08-03T21:20:40.810Z,100073.84
2022-08-03T21:23:09.425Z,100078.56
2022-08-03T21:25:37.849Z,100075.69
2022-08-03T21:28:06.004Z,100075.81
2022-08-03T21:30:32.719Z,100078.44
2022-08-03T21:32:59.210Z,100073.84
2022-08-03T21:35:26.600Z,100068.34
2022-08-03T21:38:12.874Z,100064.41
2022-08-03T21:40:40.811Z,100074.47
2022-08-03T21:43:07.841Z,100069.66
2022-08-03T21:45:45.446Z,100069.06
2022-08-03T21:48:13.608Z,100067.28
2022-08-03T21:50:42.224Z,100065.84
2022-08-03T21:53:10.876Z,100064.13
2022-08-03T21:55:39.665Z,100064.97
2022-08-03T21:58:06.680Z,100065.50
2022-08-03T22:00:33.721Z,100063.53
2022-08-03T22:03:15.215Z,100066.25
2022-08-03T22:05:44.353Z,100060.44
2022-08-03T22:08:15.034Z,100065.47
2022-08-03T22:10:44.488Z,100057.63
2022-08-03T22:13:13.795Z,100067.97
2022-08-03T22:15:41.467Z,100059.94
2022-08-03T22:18:08.400Z,100063.19
2022-08-03T22:20:35.504Z,100066.03
2022-08-03T22:23:05.411Z,100058.81
2022-08-03T22:25:35.715Z,100070.75
2022-08-03T22:28:10.223Z,100066.72
2022-08-03T22:30:37.880Z,100065.06
2022-08-03T22:33:11.162Z,100079.44
2022-08-03T22:35:48.817Z,100060.53
2022-08-03T22:38:18.806Z,100065.25
2022-08-03T22:40:48.699Z,100067.25
2022-08-03T22:43:15.335Z,100062.38
2022-08-03T22:46:10.303Z,100065.59
2022-08-03T22:48:40.855Z,100066.25
2022-08-03T22:51:08.964Z,100063.75
2022-08-03T22:53:35.957Z,100066.38
2022-08-03T22:56:03.187Z,100063.22
2022-08-03T22:58:29.703Z,100065.53
2022-08-03T23:01:02.843Z,100068.88
2022-08-03T23:04:01.248Z,100069.91
2022-08-03T23:06:21.837Z,100066.53
2022-08-03T23:08:50.135Z,100072.22
2022-08-03T23:11:18.502Z,100072.22
2022-08-03T23:13:52.291Z,100069.22
2022-08-03T23:16:29.270Z,100071.41
2022-08-03T23:18:58.771Z,100075.72
2022-08-03T23:22:00.592Z,100074.53
2022-08-03T23:24:25.261Z,100073.03
2022-08-03T23:26:57.603Z,100069.88
2022-08-03T23:29:26.030Z,100077.69
2022-08-03T23:31:53.648Z,100076.06
2022-08-03T23:34:40.009Z,100077.03
2022-08-03T23:37:06.544Z,100077.88
2022-08-03T23:39:35.017Z,100067.66
2022-08-03T23:42:02.936Z,100064.69
2022-08-03T23:44:31.024Z,100067.19
2022-08-03T23:46:57.496Z,100063.09
2022-08-03T23:49:23.963Z,100067.19
2022-08-03T23:51:54.555Z,100083.91
2022-08-03T23:54:36.355Z,100091.41
2022-08-03T23:57:15.879Z,100093.44
2022-08-03T23:59:48.532Z,100096.13
